sensor_id;sensor_type;location;lat;lon;timestamp;pressure;altitude;pressure_sealevel;temperature;humidity
78198;BME280;67472;51.554;7.812;2023-03-11T00:02:18;99693.75;;;0.90;100.00
78198;BME280;67472;51.554;7.812;2023-03-11T00:05:03;99702.88;;;0.97;100.00
78198;BME280;67472;51.554;7.812;2023-03-11T00:07:47;99705.66;;;0.94;100.00
78198;BME280;67472;51.554;7.812;2023-03-11T00:10:40;99710.50;;;1.00;100.00
78198;BME280;67472;51.554;7.812;2023-03-11T00:13:26;99713.16;;;0.99;100.00
78198;BME280;67472;51.554;7.812;2023-03-11T00:16:11;99713.31;;;0.82;100.00
78198;BME280;67472;51.554;7.812;2023-03-11T00:18:55;99733.16;;;0.98;100.00
78198;BME280;67472;51.554;7.812;2023-03-11T00:21:42;99730.16;;;0.90;100.00
78198;BME280;67472;51.554;7.812;2023-03-11T00:24:26;99733.44;;;1.08;100.00
78198;BME280;67472;51.554;7.812;2023-03-11T00:27:10;99744.53;;;0.96;100.00
78198;BME280;67472;51.554;7.812;2023-03-11T00:29:55;99738.56;;;0.80;100.00
78198;BME280;67472;51.554;7.812;2023-03-11T00:32:39;99742.16;;;0.93;100.00
78198;BME280;67472;51.554;7.812;2023-03-11T00:35:28;99745.38;;;0.96;100.00
78198;BME280;67472;51.554;7.812;2023-03-11T00:38:14;99745.56;;;0.93;100.00
78198;BME280;67472;51.554;7.812;2023-03-11T00:40:59;99756.63;;;0.97;100.00
78198;BME280;67472;51.554;7.812;2023-03-11T00:43:48;99759.72;;;1.03;100.00
78198;BME280;67472;51.554;7.812;2023-03-11T00:46:32;99752.13;;;0.85;100.00
78198;BME280;67472;51.554;7.812;2023-03-11T00:49:17;99756.91;;;0.92;100.00
78198;BME280;67472;51.554;7.812;2023-03-11T00:52:02;99756.78;;;0.80;100.00
78198;BME280;67472;51.554;7.812;2023-03-11T00:54:46;99758.41;;;0.67;100.00
78198;BME280;67472;51.554;7.812;2023-03-11T00:57:32;99765.25;;;0.68;100.00
78198;BME280;67472;51.554;7.812;2023-03-11T01:00:18;99763.44;;;0.70;100.00
78198;BME280;67472;51.554;7.812;2023-03-11T01:03:03;99766.78;;;0.72;100.00
78198;BME280;67472;51.554;7.812;2023-03-11T01:05:47;99762.41;;;0.72;100.00
78198;BME280;67472;51.554;7.812;2023-03-11T01:08:32;99767.00;;;0.83;100.00
78198;BME280;67472;51.554;7.812;2023-03-11T01:11:16;99772.09;;;0.84;100.00
78198;BME280;67472;51.554;7.812;2023-03-11T01:14:02;99774.69;;;0.84;100.00
78198;BME280;67472;51.554;7.812;2023-03-11T01:16:47;99775.06;;;0.78;100.00
78198;BME280;67472;51.554;7.812;2023-03-11T01:19:33;99772.28;;;0.81;100.00
78198;BME280;67472;51.554;7.812;2023-03-11T01:22:17;99787.50;;;0.87;100.00
78198;BME280;67472;51.554;7.812;2023-03-11T01:25:02;99790.47;;;0.81;100.00
78198;BME280;67472;51.554;7.812;2023-03-11T01:27:47;99795.84;;;0.78;100.00
78198;BME280;67472;51.554;7.812;2023-03-11T01:30:32;99789.00;;;0.91;100.00
78198;BME280;67472;51.554;7.812;2023-03-11T01:33:18;99787.88;;;0.81;100.00
78198;BME280;67472;51.554;7.812;2023-03-11T01:36:03;99796.25;;;0.86;100.00
78198;BME280;67472;51.554;7.812;2023-03-11T01:38:47;99796.75;;;0.77;100.00
78198;BME280;67472;51.554;7.812;2023-03-11T01:41:31;99788.06;;;0.78;100.00
78198;BME280;67472;51.554;7.812;2023-03-11T01:44:17;99793.81;;;0.83;100.00
78198;BME280;67472;51.554;7.812;2023-03-11T01:49:50;99790.06;;;0.73;100.00
78198;BME280;67472;51.554;7.812;2023-03-11T01:52:34;99792.31;;;0.79;100.00
78198;BME280;67472;51.554;7.812;2023-03-11T01:55:19;99785.69;;;0.74;100.00
78198;BME280;67472;51.554;7.812;2023-03-11T01:58:07;99791.88;;;0.87;100.00
78198;BME280;67472;51.554;7.812;2023-03-11T02:00:54;99791.03;;;0.86;100.00
78198;BME280;67472;51.554;7.812;2023-03-11T02:03:40;99791.06;;;0.71;100.00
78198;BME280;67472;51.554;7.812;2023-03-11T02:06:25;99799.03;;;0.83;100.00
78198;BME280;67472;51.554;7.812;2023-03-11T02:09:10;99796.59;;;0.80;100.00
78198;BME280;67472;51.554;7.812;2023-03-11T02:11:55;99797.69;;;0.76;100.00
78198;BME280;67472;51.554;7.812;2023-03-11T02:14:42;99797.13;;;0.71;100.00
78198;BME280;67472;51.554;7.812;2023-03-11T02:17:29;99801.78;;;0.80;100.00
78198;BME280;67472;51.554;7.812;2023-03-11T02:20:46;99799.88;;;0.68;100.00
78198;BME280;67472;51.554;7.812;2023-03-11T02:23:43;99799.66;;;0.57;100.00
78198;BME280;67472;51.554;7.812;2023-03-11T02:27:05;99800.50;;;0.57;100.00
78198;BME280;67472;51.554;7.812;2023-03-11T02:29:50;99804.84;;;0.57;100.00
78198;BME280;67472;51.554;7.812;2023-03-11T02:32:36;99813.38;;;0.59;100.00
78198;BME280;67472;51.554;7.812;2023-03-11T02:35:22;99812.88;;;0.68;100.00
78198;BME280;67472;51.554;7.812;2023-03-11T02:38:10;99815.97;;;0.59;100.00
78198;BME280;67472;51.554;7.812;2023-03-11T02:40:58;99815.25;;;0.57;100.00
78198;BME280;67472;51.554;7.812;2023-03-11T02:43:45;99822.03;;;0.60;100.00
78198;BME280;67472;51.554;7.812;2023-03-11T02:46:32;99820.25;;;0.60;100.00
78198;BME280;67472;51.554;7.812;2023-03-11T02:49:17;99821.19;;;0.59;100.00
78198;BME280;67472;51.554;7.812;2023-03-11T02:52:02;99825.63;;;0.57;100.00
78198;BME280;67472;51.554;7.812;2023-03-11T02:54:47;99833.75;;;0.67;100.00
78198;BME280;67472;51.554;7.812;2023-03-11T02:57:32;99837.78;;;0.56;100.00
78198;BME280;67472;51.554;7.812;2023-03-11T03:00:17;99836.25;;;0.52;100.00
78198;BME280;67472;51.554;7.812;2023-03-11T03:03:09;99842.06;;;0.57;100.00
78198;BME280;67472;51.554;7.812;2023-03-11T03:05:54;99835.19;;;0.56;100.00
78198;BME280;67472;51.554;7.812;2023-03-11T03:08:38;99839.47;;;0.42;100.00
78198;BME280;67472;51.554;7.812;2023-03-11T03:11:23;99841.88;;;0.45;100.00
78198;BME280;67472;51.554;7.812;2023-03-11T03:14:07;99844.41;;;0.31;100.00
78198;BME280;67472;51.554;7.812;2023-03-11T03:16:52;99847.75;;;0.33;100.00
78198;BME280;67472;51.554;7.812;2023-03-11T03:19:37;99856.88;;;0.24;100.00
78198;BME280;67472;51.554;7.812;2023-03-11T03:22:21;99858.13;;;0.33;100.00
78198;BME280;67472;51.554;7.812;2023-03-11T03:25:09;99873.97;;;0.28;100.00
78198;BME280;67472;51.554;7.812;2023-03-11T03:27:53;99876.25;;;0.34;100.00
78198;BME280;67472;51.554;7.812;2023-03-11T03:30:39;99876.16;;;0.36;100.00
78198;BME280;67472;51.554;7.812;2023-03-11T03:33:23;99874.97;;;0.41;100.00
78198;BME280;67472;51.554;7.812;2023-03-11T03:36:10;99870.03;;;0.37;100.00
78198;BME280;67472;51.554;7.812;2023-03-11T03:38:59;99875.97;;;0.39;100.00
78198;BME280;67472;51.554;7.812;2023-03-11T03:41:49;99884.09;;;0.33;100.00
78198;BME280;67472;51.554;7.812;2023-03-11T03:44:33;99882.88;;;0.40;100.00
78198;BME280;67472;51.554;7.812;2023-03-11T03:47:18;99888.47;;;0.48;100.00
78198;BME280;67472;51.554;7.812;2023-03-11T03:50:06;99880.34;;;0.38;100.00
78198;BME280;67472;51.554;7.812;2023-03-11T03:52:51;99894.19;;;0.54;100.00
78198;BME280;67472;51.554;7.812;2023-03-11T03:55:36;99885.97;;;0.46;100.00
78198;BME280;67472;51.554;7.812;2023-03-11T03:58:21;99885.38;;;0.41;100.00
78198;BME280;67472;51.554;7.812;2023-03-11T04:01:07;99889.72;;;0.41;100.00
78198;BME280;67472;51.554;7.812;2023-03-11T04:03:52;99891.50;;;0.40;100.00
78198;BME280;67472;51.554;7.812;2023-03-11T04:06:36;99896.59;;;0.42;100.00
78198;BME280;67472;51.554;7.812;2023-03-11T04:09:24;99896.41;;;0.29;100.00
78198;BME280;67472;51.554;7.812;2023-03-11T04:12:15;99901.44;;;0.32;100.00
78198;BME280;67472;51.554;7.812;2023-03-11T04:15:00;99902.88;;;0.38;100.00
78198;BME280;67472;51.554;7.812;2023-03-11T04:17:45;99909.53;;;0.43;100.00
78198;BME280;67472;51.554;7.812;2023-03-11T04:20:31;99914.88;;;0.40;100.00
78198;BME280;67472;51.554;7.812;2023-03-11T04:23:15;99917.06;;;0.48;100.00
78198;BME280;67472;51.554;7.812;2023-03-11T04:26:01;99917.81;;;0.50;100.00
78198;BME280;67472;51.554;7.812;2023-03-11T04:28:47;99926.19;;;0.39;100.00
78198;BME280;67472;51.554;7.812;2023-03-11T04:31:32;99925.16;;;0.42;100.00
78198;BME280;67472;51.554;7.812;2023-03-11T04:34:20;99929.47;;;0.43;100.00
78198;BME280;67472;51.554;7.812;2023-03-11T04:37:04;99929.53;;;0.41;100.00
78198;BME280;67472;51.554;7.812;2023-03-11T04:39:51;99939.22;;;0.38;100.00
78198;BME280;67472;51.554;7.812;2023-03-11T04:42:36;99941.75;;;0.39;100.00
78198;BME280;67472;51.554;7.812;2023-03-11T04:45:22;99937.41;;;0.40;100.00
78198;BME280;67472;51.554;7.812;2023-03-11T04:48:08;99949.91;;;0.49;100.00
78198;BME280;67472;51.554;7.812;2023-03-11T04:50:55;99961.63;;;0.40;100.00
78198;BME280;67472;51.554;7.812;2023-03-11T04:53:40;99957.34;;;0.39;100.00
78198;BME280;67472;51.554;7.812;2023-03-11T04:56:25;99959.50;;;0.31;100.00
78198;BME280;67472;51.554;7.812;2023-03-11T04:59:10;99972.78;;;0.42;100.00
78198;BME280;67472;51.554;7.812;2023-03-11T05:01:56;99979.13;;;0.37;100.00
78198;BME280;67472;51.554;7.812;2023-03-11T05:04:41;99980.03;;;0.36;100.00
78198;BME280;67472;51.554;7.812;2023-03-11T05:07:26;99973.19;;;0.35;100.00
78198;BME280;67472;51.554;7.812;2023-03-11T05:10:11;99973.25;;;0.33;100.00
78198;BME280;67472;51.554;7.812;2023-03-11T05:12:56;99977.97;;;0.42;100.00
78198;BME280;67472;51.554;7.812;2023-03-11T05:15:45;99976.13;;;0.44;100.00
78198;BME280;67472;51.554;7.812;2023-03-11T05:18:36;99982.00;;;0.48;100.00
78198;BME280;67472;51.554;7.812;2023-03-11T05:21:25;99988.25;;;0.44;100.00
78198;BME280;67472;51.554;7.812;2023-03-11T05:24:10;99981.56;;;0.40;100.00
78198;BME280;67472;51.554;7.812;2023-03-11T05:26:54;99989.03;;;0.46;100.00
78198;BME280;67472;51.554;7.812;2023-03-11T05:29:39;99987.97;;;0.33;100.00
78198;BME280;67472;51.554;7.812;2023-03-11T05:32:27;99989.25;;;0.41;100.00
78198;BME280;67472;51.554;7.812;2023-03-11T05:35:12;99984.44;;;0.51;100.00
78198;BME280;67472;51.554;7.812;2023-03-11T05:37:57;99994.72;;;0.37;100.00
78198;BME280;67472;51.554;7.812;2023-03-11T05:40:45;99996.22;;;0.41;100.00
78198;BME280;67472;51.554;7.812;2023-03-11T05:43:30;99996.31;;;0.39;100.00
78198;BME280;67472;51.554;7.812;2023-03-11T05:46:15;99993.97;;;0.35;100.00
78198;BME280;67472;51.554;7.812;2023-03-11T05:48:59;99992.13;;;0.37;100.00
78198;BME280;67472;51.554;7.812;2023-03-11T05:51:44;100003.50;;;0.34;100.00
78198;BME280;67472;51.554;7.812;2023-03-11T05:54:28;100000.66;;;0.39;100.00
78198;BME280;67472;51.554;7.812;2023-03-11T05:57:13;100004.00;;;0.41;100.00
78198;BME280;67472;51.554;7.812;2023-03-11T05:59:58;100005.78;;;0.40;100.00
78198;BME280;67472;51.554;7.812;2023-03-11T06:02:42;100010.56;;;0.48;100.00
78198;BME280;67472;51.554;7.812;2023-03-11T06:05:30;100010.56;;;0.48;100.00
78198;BME280;67472;51.554;7.812;2023-03-11T06:08:15;100001.34;;;0.42;100.00
78198;BME280;67472;51.554;7.812;2023-03-11T06:11:03;100006.44;;;0.44;100.00
78198;BME280;67472;51.554;7.812;2023-03-11T06:13:53;100009.44;;;0.36;100.00
78198;BME280;67472;51.554;7.812;2023-03-11T06:16:39;100007.22;;;0.46;100.00
78198;BME280;67472;51.554;7.812;2023-03-11T06:19:25;100009.97;;;0.43;100.00
78198;BME280;67472;51.554;7.812;2023-03-11T06:22:10;100010.72;;;0.45;100.00
78198;BME280;67472;51.554;7.812;2023-03-11T06:24:55;100007.06;;;0.49;100.00
78198;BME280;67472;51.554;7.812;2023-03-11T06:27:40;100018.22;;;0.51;100.00
78198;BME280;67472;51.554;7.812;2023-03-11T06:30:26;100017.72;;;0.60;100.00
78198;BME280;67472;51.554;7.812;2023-03-11T06:33:18;100010.16;;;0.55;100.00
78198;BME280;67472;51.554;7.812;2023-03-11T06:36:04;100017.03;;;0.56;100.00
78198;BME280;67472;51.554;7.812;2023-03-11T06:38:51;100025.53;;;0.60;100.00
78198;BME280;67472;51.554;7.812;2023-03-11T06:41:36;100023.66;;;0.62;100.00
78198;BME280;67472;51.554;7.812;2023-03-11T06:44:22;100034.06;;;0.62;100.00
78198;BME280;67472;51.554;7.812;2023-03-11T06:47:07;100039.63;;;0.72;100.00
78198;BME280;67472;51.554;7.812;2023-03-11T06:49:51;100039.47;;;0.75;100.00
78198;BME280;67472;51.554;7.812;2023-03-11T06:52:36;100033.75;;;0.68;100.00
78198;BME280;67472;51.554;7.812;2023-03-11T06:55:20;100039.94;;;0.66;100.00
78198;BME280;67472;51.554;7.812;2023-03-11T06:58:04;100043.19;;;0.53;100.00
78198;BME280;67472;51.554;7.812;2023-03-11T07:00:49;100053.56;;;0.53;100.00
78198;BME280;67472;51.554;7.812;2023-03-11T07:03:34;100052.66;;;0.54;100.00
78198;BME280;67472;51.554;7.812;2023-03-11T07:06:20;100060.41;;;0.72;100.00
78198;BME280;67472;51.554;7.812;2023-03-11T07:09:05;100073.53;;;0.86;100.00
78198;BME280;67472;51.554;7.812;2023-03-11T07:11:52;100076.41;;;0.97;100.00
78198;BME280;67472;51.554;7.812;2023-03-11T07:14:55;100069.69;;;1.08;100.00
78198;BME280;67472;51.554;7.812;2023-03-11T07:17:39;100078.50;;;1.06;100.00
78198;BME280;67472;51.554;7.812;2023-03-11T07:20:24;100076.00;;;1.04;100.00
78198;BME280;67472;51.554;7.812;2023-03-11T07:23:09;100080.44;;;1.02;100.00
78198;BME280;67472;51.554;7.812;2023-03-11T07:25:53;100077.91;;;1.01;100.00
78198;BME280;67472;51.554;7.812;2023-03-11T07:28:38;100082.59;;;0.94;100.00
78198;BME280;67472;51.554;7.812;2023-03-11T07:31:32;100094.69;;;0.95;100.00
78198;BME280;67472;51.554;7.812;2023-03-11T07:34:16;100092.56;;;1.02;100.00
78198;BME280;67472;51.554;7.812;2023-03-11T07:37:01;100097.63;;;1.05;100.00
78198;BME280;67472;51.554;7.812;2023-03-11T07:39:45;100103.50;;;1.08;100.00
78198;BME280;67472;51.554;7.812;2023-03-11T07:42:30;100096.41;;;1.28;100.00
78198;BME280;67472;51.554;7.812;2023-03-11T07:45:14;100099.75;;;1.30;100.00
78198;BME280;67472;51.554;7.812;2023-03-11T07:47:59;100107.47;;;1.31;100.00
78198;BME280;67472;51.554;7.812;2023-03-11T07:50:43;100115.38;;;1.45;100.00
78198;BME280;67472;51.554;7.812;2023-03-11T07:53:28;100103.53;;;1.55;100.00
78198;BME280;67472;51.554;7.812;2023-03-11T07:56:14;100094.22;;;1.51;100.00
78198;BME280;67472;51.554;7.812;2023-03-11T07:59:00;100097.00;;;1.64;100.00
78198;BME280;67472;51.554;7.812;2023-03-11T08:01:44;100089.53;;;1.58;100.00
78198;BME280;67472;51.554;7.812;2023-03-11T08:04:30;100097.84;;;1.64;100.00
78198;BME280;67472;51.554;7.812;2023-03-11T08:07:14;100091.94;;;1.61;100.00
78198;BME280;67472;51.554;7.812;2023-03-11T08:09:59;100083.47;;;1.73;100.00
78198;BME280;67472;51.554;7.812;2023-03-11T08:12:43;100083.34;;;1.90;100.00
78198;BME280;67472;51.554;7.812;2023-03-11T08:15:29;100087.72;;;1.90;100.00
78198;BME280;67472;51.554;7.812;2023-03-11T08:18:13;100096.78;;;1.98;100.00
78198;BME280;67472;51.554;7.812;2023-03-11T08:20:58;100087.72;;;2.19;100.00
78198;BME280;67472;51.554;7.812;2023-03-11T08:23:42;100080.34;;;2.12;100.00
78198;BME280;67472;51.554;7.812;2023-03-11T08:26:27;100093.25;;;2.29;100.00
78198;BME280;67472;51.554;7.812;2023-03-11T08:29:12;100094.38;;;2.39;100.00
78198;BME280;67472;51.554;7.812;2023-03-11T08:31:56;100087.44;;;2.54;100.00
78198;BME280;67472;51.554;7.812;2023-03-11T08:34:41;100094.41;;;2.53;100.00
78198;BME280;67472;51.554;7.812;2023-03-11T08:37:25;100097.22;;;2.64;100.00
78198;BME280;67472;51.554;7.812;2023-03-11T08:40:10;100096.31;;;2.94;100.00
78198;BME280;67472;51.554;7.812;2023-03-11T08:42:55;100086.34;;;2.86;100.00
78198;BME280;67472;51.554;7.812;2023-03-11T08:45:41;100082.06;;;2.99;100.00
78198;BME280;67472;51.554;7.812;2023-03-11T08:48:25;100073.78;;;3.07;100.00
78198;BME280;67472;51.554;7.812;2023-03-11T08:51:11;100058.03;;;2.94;100.00
78198;BME280;67472;51.554;7.812;2023-03-11T08:53:56;100038.84;;;2.95;100.00
78198;BME280;67472;51.554;7.812;2023-03-11T08:56:41;100024.84;;;2.96;100.00
78198;BME280;67472;51.554;7.812;2023-03-11T08:59:25;100032.94;;;3.20;100.00
78198;BME280;67472;51.554;7.812;2023-03-11T09:02:10;100018.69;;;3.11;100.00
78198;BME280;67472;51.554;7.812;2023-03-11T09:04:55;100014.63;;;3.34;100.00
78198;BME280;67472;51.554;7.812;2023-03-11T09:07:39;100022.19;;;3.38;100.00
78198;BME280;67472;51.554;7.812;2023-03-11T09:10:24;100029.91;;;3.40;100.00
78198;BME280;67472;51.554;7.812;2023-03-11T09:13:08;100023.63;;;3.42;100.00
78198;BME280;67472;51.554;7.812;2023-03-11T09:15:53;100029.72;;;3.70;100.00
78198;BME280;67472;51.554;7.812;2023-03-11T09:18:38;100023.69;;;3.55;100.00
78198;BME280;67472;51.554;7.812;2023-03-11T09:21:22;100022.53;;;3.73;99.83
78198;BME280;67472;51.554;7.812;2023-03-11T09:24:07;100041.53;;;3.75;99.74
78198;BME280;67472;51.554;7.812;2023-03-11T09:26:51;100023.38;;;3.86;97.49
78198;BME280;67472;51.554;7.812;2023-03-11T09:29:36;100045.22;;;3.85;98.14
78198;BME280;67472;51.554;7.812;2023-03-11T09:32:20;100038.28;;;3.72;94.93
78198;BME280;67472;51.554;7.812;2023-03-11T09:35:05;100033.16;;;3.70;92.71
78198;BME280;67472;51.554;7.812;2023-03-11T09:37:49;100051.38;;;3.84;94.24
78198;BME280;67472;51.554;7.812;2023-03-11T09:43:54;100050.91;;;3.65;91.92
78198;BME280;67472;51.554;7.812;2023-03-11T09:50:12;100048.28;;;3.38;91.12
78198;BME280;67472;51.554;7.812;2023-03-11T09:55:55;100054.41;;;4.18;90.49
78198;BME280;67472;51.554;7.812;2023-03-11T09:58:54;100033.75;;;4.00;87.32
78198;BME280;67472;51.554;7.812;2023-03-11T10:01:43;100024.50;;;4.09;84.12
78198;BME280;67472;51.554;7.812;2023-03-11T10:04:52;100028.25;;;4.05;82.59
78198;BME280;67472;51.554;7.812;2023-03-11T10:07:42;100035.78;;;4.22;83.30
78198;BME280;67472;51.554;7.812;2023-03-11T10:10:32;100058.28;;;4.50;85.26
78198;BME280;67472;51.554;7.812;2023-03-11T10:13:29;100047.31;;;4.83;83.29
78198;BME280;67472;51.554;7.812;2023-03-11T10:16:27;100031.88;;;5.16;81.16
78198;BME280;67472;51.554;7.812;2023-03-11T10:22:58;100034.53;;;4.91;80.40
78198;BME280;67472;51.554;7.812;2023-03-11T10:28:42;100077.41;;;4.25;83.00
78198;BME280;67472;51.554;7.812;2023-03-11T10:34:29;100063.84;;;4.58;80.89
78198;BME280;67472;51.554;7.812;2023-03-11T10:37:24;100041.94;;;4.97;78.08
78198;BME280;67472;51.554;7.812;2023-03-11T10:40:27;100042.50;;;5.26;78.39
78198;BME280;67472;51.554;7.812;2023-03-11T10:43:24;100044.09;;;5.52;78.08
78198;BME280;67472;51.554;7.812;2023-03-11T10:46:23;100027.69;;;5.50;76.38
78198;BME280;67472;51.554;7.812;2023-03-11T10:49:16;100026.22;;;5.69;77.21
78198;BME280;67472;51.554;7.812;2023-03-11T10:52:02;100056.16;;;6.37;78.82
78198;BME280;67472;51.554;7.812;2023-03-11T10:54:48;100025.53;;;5.91;75.63
78198;BME280;67472;51.554;7.812;2023-03-11T10:57:42;100042.00;;;5.81;76.55
78198;BME280;67472;51.554;7.812;2023-03-11T11:00:29;100035.56;;;5.37;75.31
78198;BME280;67472;51.554;7.812;2023-03-11T11:03:20;100068.00;;;5.11;77.84
78198;BME280;67472;51.554;7.812;2023-03-11T11:06:18;100054.13;;;4.60;75.75
78198;BME280;67472;51.554;7.812;2023-03-11T11:09:14;100074.72;;;4.52;77.59
78198;BME280;67472;51.554;7.812;2023-03-11T11:12:12;100064.59;;;4.60;76.88
78198;BME280;67472;51.554;7.812;2023-03-11T11:14:57;100068.53;;;5.03;78.63
78198;BME280;67472;51.554;7.812;2023-03-11T11:17:46;100055.06;;;5.33;76.41
78198;BME280;67472;51.554;7.812;2023-03-11T11:20:31;100052.47;;;5.81;75.46
78198;BME280;67472;51.554;7.812;2023-03-11T11:23:31;100041.91;;;6.06;73.53
78198;BME280;67472;51.554;7.812;2023-03-11T11:26:23;100034.13;;;6.04;73.19
78198;BME280;67472;51.554;7.812;2023-03-11T11:32:19;100023.63;;;6.39;72.20
78198;BME280;67472;51.554;7.812;2023-03-11T11:35:10;100034.31;;;6.25;73.60
78198;BME280;67472;51.554;7.812;2023-03-11T11:38:00;100024.97;;;5.51;71.50
78198;BME280;67472;51.554;7.812;2023-03-11T11:40:45;100025.56;;;5.55;71.67
78198;BME280;67472;51.554;7.812;2023-03-11T11:43:54;100041.03;;;5.58;72.83
78198;BME280;67472;51.554;7.812;2023-03-11T11:46:41;100036.38;;;5.50;73.21
78198;BME280;67472;51.554;7.812;2023-03-11T11:49:30;100020.16;;;5.45;71.17
78198;BME280;67472;51.554;7.812;2023-03-11T11:52:23;100010.00;;;5.64;70.55
78198;BME280;67472;51.554;7.812;2023-03-11T11:55:23;100020.28;;;5.91;71.84
78198;BME280;67472;51.554;7.812;2023-03-11T11:58:09;99997.16;;;6.31;70.21
78198;BME280;67472;51.554;7.812;2023-03-11T12:01:14;99993.03;;;6.84;69.24
78198;BME280;67472;51.554;7.812;2023-03-11T12:18:55;100011.00;;;5.27;69.84
78198;BME280;67472;51.554;7.812;2023-03-11T12:28:02;99956.47;;;5.45;65.72
78198;BME280;67472;51.554;7.812;2023-03-11T12:31:10;99991.50;;;5.79;68.22
78198;BME280;67472;51.554;7.812;2023-03-11T12:34:00;99984.09;;;6.07;67.67
78198;BME280;67472;51.554;7.812;2023-03-11T12:36:47;99999.75;;;6.20;68.12
78198;BME280;67472;51.554;7.812;2023-03-11T12:39:33;99984.63;;;6.23;66.23
78198;BME280;67472;51.554;7.812;2023-03-11T12:42:19;99971.38;;;6.14;65.06
78198;BME280;67472;51.554;7.812;2023-03-11T12:45:52;99960.69;;;6.39;64.03
78198;BME280;67472;51.554;7.812;2023-03-11T12:49:08;99973.44;;;6.77;63.96
78198;BME280;67472;51.554;7.812;2023-03-11T12:57:51;99956.69;;;7.11;61.34
78198;BME280;67472;51.554;7.812;2023-03-11T13:03:47;99949.09;;;6.31;60.52
78198;BME280;67472;51.554;7.812;2023-03-11T13:10:11;99996.00;;;7.02;63.45
78198;BME280;67472;51.554;7.812;2023-03-11T13:12:57;99977.00;;;7.09;62.11
78198;BME280;67472;51.554;7.812;2023-03-11T13:15:42;99970.59;;;6.80;61.92
78198;BME280;67472;51.554;7.812;2023-03-11T13:18:28;100006.13;;;6.95;62.75
78198;BME280;67472;51.554;7.812;2023-03-11T13:27:21;100007.81;;;6.06;63.35
78198;BME280;67472;51.554;7.812;2023-03-11T13:30:18;99985.09;;;5.59;61.74
78198;BME280;67472;51.554;7.812;2023-03-11T13:33:47;99992.25;;;5.57;62.86
78198;BME280;67472;51.554;7.812;2023-03-11T13:42:20;100039.66;;;6.80;65.84
78198;BME280;67472;51.554;7.812;2023-03-11T13:45:14;99997.31;;;7.07;62.86
78198;BME280;67472;51.554;7.812;2023-03-11T13:48:13;100004.56;;;7.58;63.22
78198;BME280;67472;51.554;7.812;2023-03-11T13:57:01;99955.84;;;7.85;59.09
78198;BME280;67472;51.554;7.812;2023-03-11T13:59:50;99919.41;;;7.28;56.85
78198;BME280;67472;51.554;7.812;2023-03-11T14:02:35;99958.59;;;7.52;59.43
78198;BME280;67472;51.554;7.812;2023-03-11T14:05:26;99928.34;;;7.37;57.92
78198;BME280;67472;51.554;7.812;2023-03-11T14:08:19;99970.31;;;7.59;59.80
78198;BME280;67472;51.554;7.812;2023-03-11T14:13:54;99966.94;;;7.89;59.19
78198;BME280;67472;51.554;7.812;2023-03-11T14:16:39;99953.91;;;7.87;58.55
78198;BME280;67472;51.554;7.812;2023-03-11T14:19:26;99951.38;;;7.45;57.97
78198;BME280;67472;51.554;7.812;2023-03-11T14:22:14;99968.81;;;7.66;59.11
78198;BME280;67472;51.554;7.812;2023-03-11T14:25:01;99938.13;;;7.67;56.91
78198;BME280;67472;51.554;7.812;2023-03-11T14:27:52;99928.88;;;7.72;56.61
78198;BME280;67472;51.554;7.812;2023-03-11T14:30:36;99938.59;;;7.40;56.89
78198;BME280;67472;51.554;7.812;2023-03-11T14:33:21;99954.09;;;7.43;57.77
78198;BME280;67472;51.554;7.812;2023-03-11T14:36:10;99963.44;;;7.36;58.56
78198;BME280;67472;51.554;7.812;2023-03-11T14:38:56;99964.09;;;7.49;58.65
78198;BME280;67472;51.554;7.812;2023-03-11T14:41:41;99946.28;;;7.21;57.77
78198;BME280;67472;51.554;7.812;2023-03-11T14:44:26;99961.56;;;7.27;58.12
78198;BME280;67472;51.554;7.812;2023-03-11T14:50:10;99934.91;;;7.63;56.20
78198;BME280;67472;51.554;7.812;2023-03-11T14:53:13;99956.47;;;7.78;56.60
78198;BME280;67472;51.554;7.812;2023-03-11T14:56:02;99923.66;;;7.40;55.69
78198;BME280;67472;51.554;7.812;2023-03-11T15:01:38;99956.09;;;8.24;56.21
78198;BME280;67472;51.554;7.812;2023-03-11T15:04:30;99950.38;;;8.39;55.56
78198;BME280;67472;51.554;7.812;2023-03-11T15:07:19;99964.50;;;7.97;57.25
78198;BME280;67472;51.554;7.812;2023-03-11T15:10:10;99939.34;;;8.25;54.69
78198;BME280;67472;51.554;7.812;2023-03-11T15:13:24;99931.09;;;7.35;54.97
78198;BME280;67472;51.554;7.812;2023-03-11T15:16:31;99922.81;;;7.08;54.63
78198;BME280;67472;51.554;7.812;2023-03-11T15:25:18;99975.41;;;7.72;56.54
78198;BME280;67472;51.554;7.812;2023-03-11T15:28:33;99981.66;;;7.06;53.87
78198;BME280;67472;51.554;7.812;2023-03-11T15:34:32;100015.28;;;7.23;56.16
78198;BME280;67472;51.554;7.812;2023-03-11T15:37:19;100017.56;;;7.05;55.45
78198;BME280;67472;51.554;7.812;2023-03-11T15:40:18;100029.63;;;6.74;56.13
78198;BME280;67472;51.554;7.812;2023-03-11T15:43:19;100031.09;;;6.78;55.94
78198;BME280;67472;51.554;7.812;2023-03-11T15:46:04;100057.63;;;6.41;58.52
78198;BME280;67472;51.554;7.812;2023-03-11T15:48:48;100064.94;;;6.24;59.40
78198;BME280;67472;51.554;7.812;2023-03-11T15:51:33;100063.00;;;6.15;59.22
78198;BME280;67472;51.554;7.812;2023-03-11T15:54:17;100028.03;;;5.93;56.66
78198;BME280;67472;51.554;7.812;2023-03-11T15:57:05;100054.44;;;5.90;58.64
78198;BME280;67472;51.554;7.812;2023-03-11T15:59:52;100055.66;;;5.86;59.18
78198;BME280;67472;51.554;7.812;2023-03-11T16:02:38;100069.94;;;5.93;58.88
78198;BME280;67472;51.554;7.812;2023-03-11T16:05:24;100092.56;;;6.06;61.73
78198;BME280;67472;51.554;7.812;2023-03-11T16:08:09;100079.78;;;6.02;60.10
78198;BME280;67472;51.554;7.812;2023-03-11T16:10:53;100067.91;;;5.49;59.31
78198;BME280;67472;51.554;7.812;2023-03-11T16:13:38;100076.34;;;5.29;60.20
78198;BME280;67472;51.554;7.812;2023-03-11T16:16:22;100089.34;;;5.30;60.18
78198;BME280;67472;51.554;7.812;2023-03-11T16:19:07;100083.53;;;5.50;59.79
78198;BME280;67472;51.554;7.812;2023-03-11T16:21:51;100078.94;;;5.41;59.33
78198;BME280;67472;51.554;7.812;2023-03-11T16:24:36;100077.69;;;5.34;59.02